Airfield :
LOGIN :

Register | Disclaimer

   EN    FR    IT 

 










Legend :    VFR   Marginal VFR   IFR   Intensive IFR   Very Intensive IFR
Visi :
Ceiling :
>= 8 km
>= 3000ft
5 to 8 km
1000 to 3000 ft
1500m to 5 km
500 to 1000 ft
800 to 1500m
200 to 500 ft
< 800m
< 200 ft
Symbols :   Thunderstorms  Fog  Heavy snow  Heavy precipitations  Wind > 20 kt
SIGMETs :     Misc.  Thunderstorms  Icing  Turbulence  Mountain Waves  Volcanic Ashes







- Airport Elevation : 16 ft
- IATA code : SDR


LEXJ - Santander Cantabria

CURRENT METAR :
  • 210200Z AUTO 00000KT 9999 OVC033 20/18 Q1021

EXPIRED METARs :
  • 210130Z AUTO 00000KT 9999 BKN035 20/18 Q1021
  • 210100Z AUTO 24002KT 9999 SCT034 BKN040 20/18 Q1021
  • 210030Z AUTO VRB02KT 9000 FEW019 BKN034 21/18 Q1021
  • 210000Z AUTO 22001KT 9999 FEW020 SCT035 BKN045 21/19 Q1021
  • 202330Z AUTO VRB02KT 9999 FEW018 OVC042 21/19 Q1022

TAF TAF LEXJ
Valid from the 20 at 21:00 until the 21 at 21:00 UTC


202000Z 2021/2121 VRB06KT 9999 FEW015 BKN025 TX24/2114Z TN18/2105Z
PROB30
TEMPO 2021/2104 BKN014
PROB40
TEMPO 2104/2115 BKN012
PROB30
TEMPO 2104/2109 4000 DZ BR BKN010
TEMPO 2110/2119 04010KT
No reported NOTAMs for that airfield.



MET'MAP, your aeronautical weather chart ! - Copyright ORBIFLY December 2007 - Disclaimer

ORBIFLY MET'MAP TEAM :

Programming & Development : Alexandra Zaïnal
Concept & Development : Baudouin d'Aumeries
Co-Development & Prog : Marc-Olivier Méhu
Technical & hardware support : Manuel Goepfert

Contact : metmap@orbifly.com




SOURCES & CREDITS :

   NOAA